Time;durP1;ratioP1;P1;durP2;ratioP2;P2;SDS_P1;SDS_P2;PMS_P1;PMS_P2;Temp;Humidity;BMP_temperature;BMP_pressure;BME280_temperature;BME280_humidity;BME280_pressure;Samples;Min_cycle;Max_cycle;Signal;HPM_P1;HPM_P2
2023/02/09 00:00:22;;;;;;;109.60;42.50;;;;;;;-1.86;100.00;103094.05;5096559;56;1145065;-68
2023/02/09 00:05:29;;;;;;;122.67;46.03;;;;;;;-1.95;100.00;103082.23;5116719;56;1145152;-69
2023/02/09 00:10:35;;;;;;;111.70;45.17;;;;;;;-2.02;100.00;103087.77;5096588;56;1145066;-68
2023/02/09 00:15:57;;;;;;;104.20;41.73;;;;;;;-2.10;100.00;103077.68;5096393;56;1144985;-67
2023/02/09 00:21:09;;;;;;;99.13;38.95;;;;;;;-2.14;100.00;103073.32;5097256;56;1145493;-66
2023/02/09 00:26:15;;;;;;;98.47;39.07;;;;;;;-2.11;100.00;103061.67;5117158;56;1142969;-66
2023/02/09 00:31:22;;;;;;;116.57;43.20;;;;;;;-2.11;100.00;103065.56;5096690;56;1143470;-66
2023/02/09 00:36:29;;;;;;;115.57;44.23;;;;;;;-2.07;100.00;103056.12;5093826;56;1145216;-66
2023/02/09 00:46:55;;;;;;;100.83;40.57;;;;;;;-2.15;100.00;103023.19;4847822;58;1145157;-65
2023/02/09 00:52:02;;;;;;;105.32;41.75;;;;;;;-2.14;100.00;103022.31;4847985;59;1145395;-67
2023/02/09 00:57:10;;;;;;;98.00;39.70;;;;;;;-2.16;100.00;103017.55;4866914;59;1145295;-66
2023/02/09 01:02:17;;;;;;;102.75;42.23;;;;;;;-2.08;100.00;103017.66;4848142;58;1143174;-65
2023/02/09 01:07:23;;;;;;;104.93;39.83;;;;;;;-2.03;100.00;103012.12;4847746;58;1145159;-66
2023/02/09 01:12:31;;;;;;;93.00;39.17;;;;;;;-2.03;100.00;103012.55;4866947;58;1145251;-66
2023/02/09 01:17:37;;;;;;;94.17;40.45;;;;;;;-2.10;100.00;103005.09;4847881;58;1143150;-67
2023/02/09 01:22:44;;;;;;;93.03;40.37;;;;;;;-2.12;100.00;102994.69;4954663;56;1143008;-66
2023/02/09 01:27:49;;;;;;;106.00;41.97;;;;;;;-2.17;100.00;102988.59;5116776;56;1142987;-68
2023/02/09 01:32:56;;;;;;;98.90;38.67;;;;;;;-2.25;100.00;102984.12;5095680;56;1145310;-67
2023/02/09 01:38:02;;;;;;;96.60;39.80;;;;;;;-2.35;100.00;102980.55;5096663;56;1143121;-65
2023/02/09 01:43:09;;;;;;;94.37;38.08;;;;;;;-2.49;100.00;102960.91;5116771;55;1143056;-68
2023/02/09 01:48:18;;;;;;;95.57;38.03;;;;;;;-2.55;100.00;102954.74;5096639;55;1143071;-65
2023/02/09 01:53:24;;;;;;;96.30;37.83;;;;;;;-2.57;100.00;102948.66;5096493;56;1142946;-65
2023/02/09 01:58:33;;;;;;;97.73;37.60;;;;;;;-2.65;100.00;102933.02;5118429;56;1143026;-66
2023/02/09 02:03:41;;;;;;;91.90;36.93;;;;;;;-2.69;100.00;102931.64;5130233;56;1143089;-66
2023/02/09 02:09:01;;;;;;;95.53;37.30;;;;;;;-2.77;100.00;102931.55;5129872;55;1143042;-67
2023/02/09 02:14:07;;;;;;;89.77;36.93;;;;;;;-2.74;100.00;102912.14;5123615;56;1143229;-66
2023/02/09 02:19:29;;;;;;;91.70;38.80;;;;;;;-2.70;100.00;102910.47;5150990;56;1143051;-67
2023/02/09 02:25:08;;;;;;;92.87;35.50;;;;;;;-2.74;100.00;102895.73;5125293;56;1142938;-66
2023/02/09 02:30:46;;;;;;;99.50;39.53;;;;;;;-2.75;100.00;102870.25;5130377;55;1143016;-66
2023/02/09 02:36:01;;;;;;;87.53;36.10;;;;;;;-2.73;100.00;102869.86;5130061;56;1142916;-67
2023/02/09 02:41:25;;;;;;;101.73;37.87;;;;;;;-2.75;100.00;102857.77;5130560;56;1143161;-66
2023/02/09 02:46:44;;;;;;;90.90;38.03;;;;;;;-2.76;100.00;102845.23;5149787;56;1145268;-66
2023/02/09 02:51:53;;;;;;;93.97;37.27;;;;;;;-2.76;100.00;102839.19;5129764;56;1143271;-66
2023/02/09 02:57:15;;;;;;;89.27;35.00;;;;;;;-2.75;100.00;102842.22;5094726;56;1143023;-67
2023/02/09 03:02:26;;;;;;;90.40;35.07;;;;;;;-2.71;100.00;102834.50;5129854;56;1143001;-67
2023/02/09 03:07:32;;;;;;;86.97;35.20;;;;;;;-2.68;100.00;102829.36;5150562;56;1142883;-65
2023/02/09 03:12:49;;;;;;;89.73;34.90;;;;;;;-2.68;100.00;102825.48;5130399;56;1143073;-66
2023/02/09 03:18:14;;;;;;;87.27;34.37;;;;;;;-2.64;100.00;102818.62;5073992;56;1142951;-66
2023/02/09 03:23:49;;;;;;;80.43;33.13;;;;;;;-2.61;100.00;102817.38;5130504;56;1143020;-68
2023/02/09 03:28:58;;;;;;;86.35;35.50;;;;;;;-2.62;100.00;102815.22;4800556;57;1143262;-65
2023/02/09 03:34:04;;;;;;;80.50;35.20;;;;;;;-2.58;100.00;102811.79;5012832;57;1143199;-65
2023/02/09 03:39:11;;;;;;;78.30;32.67;;;;;;;-2.53;100.00;102807.55;5041419;57;1143187;-66
2023/02/09 03:44:26;;;;;;;80.27;32.43;;;;;;;-2.49;100.00;102797.68;5046132;57;1143130;-66
2023/02/09 03:49:38;;;;;;;82.33;34.03;;;;;;;-2.46;100.00;102794.27;5065797;57;1143060;-66
2023/02/09 03:54:44;;;;;;;80.30;34.03;;;;;;;-2.44;100.00;102800.77;5045685;57;1143169;-65
2023/02/09 03:59:50;;;;;;;92.78;35.65;;;;;;;-2.38;100.00;102795.63;5045803;57;1143203;-68
2023/02/09 04:04:55;;;;;;;82.80;34.80;;;;;;;-2.38;100.00;102790.45;5066859;56;1143086;-66
2023/02/09 04:10:01;;;;;;;86.82;35.15;;;;;;;-2.35;100.00;102782.72;5116321;56;1143157;-66
2023/02/09 04:15:09;;;;;;;96.08;35.28;;;;;;;-2.35;100.00;102768.47;5095099;55;1143200;-66
2023/02/09 04:20:15;;;;;;;89.28;37.15;;;;;;;-2.33;100.00;102754.68;5096658;56;1143103;-65
2023/02/09 04:25:21;;;;;;;92.30;38.07;;;;;;;-2.30;100.00;102747.38;5116282;56;1143065;-68
2023/02/09 04:30:27;;;;;;;56.73;21.30;;;;;;;-2.26;100.00;102743.94;5096106;56;1142883;-66
2023/02/09 04:35:33;;;;;;;99.77;35.60;;;;;;;-2.30;100.00;102746.08;5096375;56;1142971;-65
2023/02/09 04:40:39;;;;;;;84.50;31.73;;;;;;;-2.36;100.00;102736.50;5115877;56;1143133;-67
2023/02/09 04:45:44;;;;;;;70.93;32.00;;;;;;;-2.34;100.00;102733.93;5096908;56;1143118;-66
2023/02/09 04:50:51;;;;;;;81.07;32.87;;;;;;;-2.44;100.00;102731.64;5091670;56;1143088;-68
2023/02/09 04:55:57;;;;;;;85.83;33.27;;;;;;;-2.51;100.00;102733.31;5096697;56;1143307;-67
2023/02/09 05:01:05;;;;;;;74.70;29.45;;;;;;;-2.56;100.00;102719.85;5123550;55;1143054;-66
2023/02/09 05:06:12;;;;;;;78.53;33.40;;;;;;;-2.67;100.00;102718.44;5072118;56;1143078;-66
2023/02/09 05:11:17;;;;;;;72.12;26.15;;;;;;;-2.74;100.00;102714.45;5096652;56;1143139;-68
2023/02/09 05:16:23;;;;;;;89.07;33.53;;;;;;;-2.81;100.00;102706.17;5100547;56;1143157;-67
2023/02/09 05:21:29;;;;;;;88.40;34.20;;;;;;;-2.87;100.00;102697.89;5021841;56;1143079;-67
2023/02/09 05:26:35;;;;;;;96.63;38.03;;;;;;;-2.92;100.00;102697.86;5012310;56;1143149;-66
2023/02/09 05:31:40;;;;;;;82.00;33.83;;;;;;;-2.98;100.00;102695.18;5032635;56;1143288;-67
2023/02/09 05:36:46;;;;;;;87.37;37.10;;;;;;;-3.03;100.00;102696.83;5012640;55;1143207;-66
2023/02/09 05:47:20;;;;;;;;;;;;;;;-3.12;100.00;102673.85;5016663;56;1143072;-66
2023/02/09 05:52:27;;;;;;;90.67;35.90;;;;;;;-3.16;100.00;102680.70;5049042;56;976211;-67
2023/02/09 05:57:33;;;;;;;88.27;35.60;;;;;;;-3.16;100.00;102678.53;5021436;56;1141061;-65
2023/02/09 06:02:38;;;;;;;87.83;34.87;;;;;;;-3.15;100.00;102665.62;5095816;55;1143201;-66
2023/02/09 06:07:44;;;;;;;84.20;34.58;;;;;;;-3.11;100.00;102665.23;5127373;56;1143013;-67
2023/02/09 06:12:50;;;;;;;103.73;40.70;;;;;;;-3.12;100.00;102676.44;5129360;56;1142930;-67
2023/02/09 06:17:56;;;;;;;111.70;39.10;;;;;;;-3.05;100.00;102673.94;5046492;56;1145214;-67
2023/02/09 06:23:02;;;;;;;86.67;36.03;;;;;;;-3.02;100.00;102680.87;5046385;56;1145233;-65
2023/02/09 06:28:08;;;;;;;99.33;37.07;;;;;;;-3.01;100.00;102674.42;5066022;56;1143114;-65
2023/02/09 06:33:14;;;;;;;100.47;38.30;;;;;;;-2.96;100.00;102663.72;5098971;56;1143090;-67
2023/02/09 06:38:21;;;;;;;73.17;27.53;;;;;;;-2.90;100.00;102659.02;5064829;56;1145554;-66
2023/02/09 06:43:28;;;;;;;82.50;33.33;;;;;;;-2.94;100.00;102667.20;5104541;56;1142982;-67
2023/02/09 06:48:33;;;;;;;83.20;30.80;;;;;;;-3.01;100.00;102657.59;5062391;56;1142931;-67
2023/02/09 06:53:44;;;;;;;85.77;34.30;;;;;;;-3.04;100.00;102659.27;5092025;56;1143033;-66
2023/02/09 06:58:50;;;;;;;85.50;34.70;;;;;;;-3.02;100.00;102659.74;5150237;56;1143119;-67
2023/02/09 07:03:56;;;;;;;57.90;23.50;;;;;;;-3.01;100.00;102661.91;5128944;55;1143017;-68
2023/02/09 07:09:02;;;;;;;84.40;36.13;;;;;;;-2.94;100.00;102660.72;5129569;56;1143145;-66
2023/02/09 07:14:08;;;;;;;78.37;33.37;;;;;;;-2.89;100.00;102655.16;5130623;55;1143061;-64
2023/02/09 07:19:14;;;;;;;83.72;30.95;;;;;;;-2.82;100.00;102654.81;5150721;56;1142919;-67
2023/02/09 07:24:20;;;;;;;79.58;31.10;;;;;;;-2.76;100.00;102651.02;5082498;56;1142905;-68
2023/02/09 07:29:25;;;;;;;74.00;28.10;;;;;;;-2.68;100.00;102650.66;5109058;56;1143122;-67
2023/02/09 07:34:31;;;;;;;77.53;31.67;;;;;;;-2.53;100.00;102654.70;5074540;56;1143181;-65
2023/02/09 07:39:37;;;;;;;65.42;26.77;;;;;;;-2.31;100.00;102650.62;5125801;55;1143160;-66
2023/02/09 07:44:43;;;;;;;84.70;34.53;;;;;;;-2.18;100.00;102647.28;5103588;55;1143082;-68
2023/02/09 07:49:48;;;;;;;86.90;36.97;;;;;;;-2.04;100.00;102653.87;5066185;56;1142951;-68
2023/02/09 07:54:54;;;;;;;77.87;30.33;;;;;;;-1.89;100.00;102646.22;5081501;55;1143149;-65
2023/02/09 08:00:00;;;;;;;101.80;45.03;;;;;;;-1.61;100.00;102643.81;5105767;56;1142900;-66
2023/02/09 08:05:10;;;;;;;78.40;33.13;;;;;;;-1.33;100.00;102648.30;5053392;56;1145096;-67
2023/02/09 08:10:22;;;;;;;73.30;29.87;;;;;;;-1.04;100.00;102648.88;5065519;56;1143299;-67
2023/02/09 08:15:55;;;;;;;85.83;36.17;;;;;;;-1.06;100.00;102649.73;5046113;56;1143112;-66
2023/02/09 08:21:00;;;;;;;71.30;28.03;;;;;;;-1.00;100.00;102642.84;5038467;56;1142992;-68
2023/02/09 08:26:10;;;;;;;80.17;32.70;;;;;;;-0.93;99.20;102640.72;5098338;56;1143214;-67
2023/02/09 08:31:20;;;;;;;80.47;34.55;;;;;;;-0.87;98.68;102636.39;5147057;56;1141051;-65
2023/02/09 08:36:26;;;;;;;85.57;34.53;;;;;;;-0.82;99.97;102627.33;5097507;55;1140898;-68
2023/02/09 08:41:34;;;;;;;71.23;29.93;;;;;;;-0.57;100.00;102623.91;5113684;56;1140914;-66
2023/02/09 08:46:40;;;;;;;78.65;32.75;;;;;;;-0.60;96.80;102633.42;5099854;56;1143176;-67
2023/02/09 08:51:46;;;;;;;66.17;25.63;;;;;;;-0.59;95.05;102633.43;5045472;56;1141337;-67
2023/02/09 08:56:51;;;;;;;74.87;32.57;;;;;;;-0.56;96.23;102629.55;5046167;56;1141193;-69
2023/02/09 09:01:57;;;;;;;86.67;36.63;;;;;;;-0.48;96.46;102619.18;5128449;56;1141015;-67
2023/02/09 09:07:03;;;;;;;77.70;33.28;;;;;;;-0.31;96.79;102618.77;5148058;55;1140893;-64
2023/02/09 09:12:09;;;;;;;67.67;28.63;;;;;;;-0.17;96.72;102604.05;5129719;56;1140885;-67
2023/02/09 09:17:15;;;;;;;68.05;29.65;;;;;;;-0.02;95.74;102607.07;5037916;56;1140875;-64
2023/02/09 09:22:22;;;;;;;74.00;30.40;;;;;;;0.10;95.91;102610.09;5033418;56;1141104;-65
2023/02/09 09:27:28;;;;;;;73.27;32.17;;;;;;;0.25;96.40;102608.77;5014851;56;1138963;-68
2023/02/09 09:32:34;;;;;;;69.17;30.40;;;;;;;0.34;94.84;102610.04;5013293;56;1138879;-66
2023/02/09 09:37:40;;;;;;;66.20;26.90;;;;;;;0.34;93.04;102616.11;5033101;56;1138895;-67
2023/02/09 09:42:50;;;;;;;69.33;30.60;;;;;;;0.28;92.48;102608.77;5040195;55;1138902;-67
2023/02/09 09:47:57;;;;;;;66.50;28.80;;;;;;;0.23;92.26;102609.20;5094205;56;1139003;-69
2023/02/09 09:53:19;;;;;;;71.12;29.92;;;;;;;0.22;92.19;102605.73;5096094;56;1139079;-67
2023/02/09 09:58:25;;;;;;;63.70;24.17;;;;;;;0.20;92.16;102599.66;5109096;56;1139079;-66
2023/02/09 10:03:31;;;;;;;65.43;24.70;;;;;;;0.19;91.90;102590.12;5013185;56;1138833;-66
2023/02/09 10:08:44;;;;;;;63.75;26.75;;;;;;;0.29;92.94;102602.70;5013048;56;1138954;-67
2023/02/09 10:13:54;;;;;;;54.58;22.58;;;;;;;0.38;91.62;102601.80;5023859;56;1138951;-66
2023/02/09 10:19:04;;;;;;;53.97;24.53;;;;;;;0.44;91.86;102601.36;5046124;56;1138860;-68
2023/02/09 10:24:27;;;;;;;51.45;21.60;;;;;;;0.52;90.83;102590.48;5036820;56;1138912;-67
2023/02/09 10:29:34;;;;;;;59.63;27.10;;;;;;;0.58;90.97;102584.39;5144635;55;1138784;-67
2023/02/09 10:34:52;;;;;;;89.80;35.43;;;;;;;0.65;90.73;102584.35;5126953;56;1138775;-68
2023/02/09 10:40:16;;;;;;;82.40;38.20;;;;;;;0.80;91.38;102574.75;5046296;56;1139046;-68
2023/02/09 10:45:41;;;;;;;60.00;26.48;;;;;;;0.95;93.25;102579.45;5098488;56;1138794;-66
2023/02/09 10:50:58;;;;;;;95.23;37.83;;;;;;;1.09;89.35;102570.69;5114996;56;1139063;-67
2023/02/09 10:56:24;;;;;;;69.67;27.50;;;;;;;1.08;88.60;102556.80;5056191;56;1139056;-67
2023/02/09 11:01:34;;;;;;;80.40;25.97;;;;;;;1.14;88.55;102546.34;5120667;56;1138965;-68
2023/02/09 11:07:02;;;;;;;77.40;27.67;;;;;;;1.23;87.67;102548.02;5150380;56;1138940;-66
2023/02/09 11:12:11;;;;;;;61.57;24.87;;;;;;;1.28;86.52;102543.64;5130067;56;1139366;-68
2023/02/09 11:17:37;;;;;;;58.27;22.37;;;;;;;1.35;87.36;102530.58;5117131;56;1139839;-66
2023/02/09 11:23:08;;;;;;;177.70;50.53;;;;;;;1.39;85.18;102522.27;5114535;56;1138870;-66
2023/02/09 11:28:39;;;;;;;60.90;24.10;;;;;;;1.44;85.42;102511.81;4996861;57;1141289;-66
2023/02/09 11:34:20;;;;;;;66.42;22.48;;;;;;;1.61;85.17;102517.75;4869327;58;1138828;-68
2023/02/09 11:39:52;;;;;;;67.83;28.10;;;;;;;1.74;83.85;102511.55;4961203;57;1142873;-70
2023/02/09 11:45:05;;;;;;;72.40;27.27;;;;;;;1.89;83.66;102494.88;4992088;57;1138899;-67
2023/02/09 11:50:28;;;;;;;53.08;20.00;;;;;;;2.05;82.60;102480.36;4970159;57;1138824;-67
2023/02/09 11:55:44;;;;;;;56.67;25.33;;;;;;;2.26;80.76;102469.25;4957091;57;1139044;-66
2023/02/09 12:00:55;;;;;;;55.53;23.00;;;;;;;2.43;80.60;102451.63;4905173;58;1138888;-66
2023/02/09 12:06:01;;;;;;;56.63;24.00;;;;;;;2.66;80.16;102448.25;5004014;56;1139009;-68
2023/02/09 12:11:44;;;;;;;50.90;21.03;;;;;;;2.85;78.15;102440.16;4973582;57;1138735;-69
2023/02/09 12:17:11;;;;;;;48.03;21.03;;;;;;;2.97;74.99;102428.20;4866488;58;1138969;-68
2023/02/09 12:22:39;;;;;;;43.40;17.77;;;;;;;3.00;74.55;102423.80;4856808;58;1138856;-66
2023/02/09 12:28:10;;;;;;;43.97;20.37;;;;;;;3.11;72.22;102416.63;4747046;59;1139121;-68
2023/02/09 12:33:38;;;;;;;38.93;17.77;;;;;;;3.28;73.35;102398.50;4863860;57;1139027;-66
2023/02/09 12:39:03;;;;;;;33.83;16.03;;;;;;;3.41;70.08;102394.77;4882842;57;1138766;-68
2023/02/09 12:44:18;;;;;;;38.88;16.73;;;;;;;3.62;69.50;102386.54;5011968;56;1139114;-68
2023/02/09 12:49:32;;;;;;;34.47;14.33;;;;;;;3.73;69.86;102388.94;5035868;56;1138989;-68
2023/02/09 12:54:56;;;;;;;28.17;13.80;;;;;;;3.81;65.21;102382.68;5066271;55;1138758;-65
2023/02/09 13:00:09;;;;;;;55.47;16.20;;;;;;;3.81;64.80;102371.34;5042367;56;1139045;-68
2023/02/09 13:05:39;;;;;;;32.63;15.83;;;;;;;3.87;66.28;102347.20;5043982;56;1139106;-68
2023/02/09 13:11:22;;;;;;;20.00;9.67;;;;;;;4.03;67.79;102329.42;5135245;55;1138787;-66
2023/02/09 13:16:57;;;;;;;28.17;12.53;;;;;;;4.18;60.93;102325.16;5045202;56;1137030;-66
2023/02/09 13:22:19;;;;;;;26.80;12.70;;;;;;;4.33;62.12;102324.39;5044521;56;1139197;-68
2023/02/09 13:27:28;;;;;;;29.55;14.03;;;;;;;4.61;64.47;102325.47;5044599;56;1138992;-66
2023/02/09 13:32:47;;;;;;;27.23;10.93;;;;;;;4.89;65.57;102328.27;5064082;56;1139131;-67
2023/02/09 13:37:59;;;;;;;30.03;13.23;;;;;;;4.99;56.04;102327.61;5053095;56;1138761;-65
2023/02/09 13:43:17;;;;;;;25.13;12.03;;;;;;;4.95;58.49;102329.44;5113109;56;1138881;-68
2023/02/09 13:48:30;;;;;;;40.23;15.77;;;;;;;5.11;60.32;102325.52;5109348;56;1138875;-69
2023/02/09 13:53:36;;;;;;;32.90;13.87;;;;;;;5.53;61.96;102316.94;5140698;55;1138914;-68
2023/02/09 13:58:41;;;;;;;27.47;12.87;;;;;;;6.02;56.31;102310.30;5120301;56;1138895;-70
2023/02/09 14:04:04;;;;;;;14.90;8.60;;;;;;;6.66;54.67;102313.55;5120555;56;1138918;-68
2023/02/09 14:09:23;;;;;;;20.72;10.10;;;;;;;7.20;47.04;102303.37;5119967;56;1136797;-70
2023/02/09 14:20:04;;;;;;;24.67;10.90;;;;;;;8.06;42.64;102307.21;5120732;55;1136797;-68
2023/02/09 14:25:20;;;;;;;31.00;11.07;;;;;;;7.82;43.26;102310.76;5093811;56;1139115;-70
2023/02/09 14:30:36;;;;;;;27.73;13.72;;;;;;;7.85;43.84;102311.97;5106719;56;1138898;-68
2023/02/09 14:35:41;;;;;;;22.50;11.67;;;;;;;7.76;40.50;102313.19;5066412;56;1138906;-67
2023/02/09 14:40:46;;;;;;;22.87;11.83;;;;;;;6.62;43.15;102307.97;5036291;56;1138850;-67
2023/02/09 14:46:01;;;;;;;40.83;18.90;;;;;;;5.66;45.24;102301.69;5018818;57;1139062;-70
2023/02/09 14:51:15;;;;;;;34.23;17.53;;;;;;;5.08;45.89;102297.20;4998973;57;1138829;-67
2023/02/09 14:56:28;;;;;;;36.17;18.43;;;;;;;4.95;47.93;102283.55;4998801;57;1138907;-69
2023/02/09 15:01:35;;;;;;;39.35;20.97;;;;;;;5.42;49.37;102269.60;5098050;56;1138977;-68
2023/02/09 15:06:44;;;;;;;43.93;22.47;;;;;;;5.17;51.07;102263.73;5087773;56;1139025;-67
2023/02/09 15:12:06;;;;;;;35.73;17.70;;;;;;;4.87;52.89;102260.63;5058150;56;1138902;-70
2023/02/09 15:17:19;;;;;;;59.63;32.10;;;;;;;4.49;53.62;102261.13;4999743;57;1139037;-71
2023/02/09 15:22:25;;;;;;;75.35;32.40;;;;;;;4.26;55.29;102250.36;5060231;56;1138854;-70
2023/02/09 15:27:46;;;;;;;44.45;25.62;;;;;;;4.07;55.61;102245.13;5086855;56;1139140;-67
2023/02/09 15:32:52;;;;;;;52.70;26.33;;;;;;;3.91;56.23;102240.69;5058970;56;1138935;-68
2023/02/09 15:38:02;;;;;;;79.70;38.93;;;;;;;3.78;56.93;102228.78;5043861;56;1139099;-69
2023/02/09 15:48:42;;;;;;;33.98;13.40;;;;;;;3.54;57.41;102236.69;5033062;57;1138881;-70
2023/02/09 15:53:48;;;;;;;42.63;16.53;;;;;;;3.31;56.65;102241.55;4976515;57;1138897;-68
2023/02/09 15:58:57;;;;;;;60.97;25.80;;;;;;;3.16;58.08;102258.40;4979979;56;1138805;-70
2023/02/09 16:04:09;;;;;;;96.00;62.47;;;;;;;2.98;58.69;102270.50;4962272;56;1138849;-70
2023/02/09 16:09:25;;;;;;;60.03;25.50;;;;;;;2.85;59.91;102262.47;4959643;57;1138846;-67
2023/02/09 16:14:31;;;;;;;139.10;51.68;;;;;;;2.70;60.00;102258.38;4979489;57;1138911;-67
2023/02/09 16:19:37;;;;;;;436.32;133.30;;;;;;;2.61;60.37;102251.98;4954672;56;1141044;-69
2023/02/09 16:24:48;;;;;;;249.10;78.67;;;;;;;2.45;61.53;102271.82;4958035;56;1143110;-69
2023/02/09 16:30:03;;;;;;;195.63;59.87;;;;;;;2.45;61.53;102271.82;5081988;56;1141017;-70
2023/02/09 16:35:53;;;;;;;699.52;210.40;;;;;;;2.37;62.27;102272.84;5045049;55;1140933;-70
2023/02/09 16:41:45;;;;;;;85.83;34.58;;;;;;;2.35;62.68;102270.70;5095201;54;1143458;-71
2023/02/09 16:46:22;;;;;;;144.37;50.55;;;;;;;2.38;63.38;102251.07;5057873;56;1145813;-66
2023/02/09 16:51:29;;;;;;;71.25;27.48;;;;;;;2.34;62.95;102215.45;5062845;56;1140884;-68
2023/02/09 16:56:35;;;;;;;100.43;37.50;;;;;;;2.30;63.57;102221.16;5054704;56;1138835;-70
2023/02/09 17:01:41;;;;;;;197.23;62.17;;;;;;;2.21;63.98;102229.59;5025680;57;1140975;-68
2023/02/09 17:06:51;;;;;;;92.50;32.60;;;;;;;2.10;64.35;102227.16;5107431;55;1141206;-69
2023/02/09 17:12:29;;;;;;;82.60;35.77;;;;;;;1.97;64.22;102209.52;5109200;55;1138558;-69
2023/02/09 17:17:39;;;;;;;139.62;67.87;;;;;;;1.90;64.46;102214.84;5108042;55;1138863;-67
2023/02/09 17:22:57;;;;;;;163.97;52.70;;;;;;;1.83;64.23;102214.08;5100468;54;1141528;-71
2023/02/09 17:28:25;;;;;;;378.23;102.50;;;;;;;1.81;63.72;102213.67;5087351;54;1140805;-69
2023/02/09 17:33:34;;;;;;;172.63;51.60;;;;;;;1.82;64.90;102220.63;5128114;55;1143153;-67
2023/02/09 17:38:41;;;;;;;159.73;53.70;;;;;;;1.79;63.77;102218.05;5113996;55;1140940;-67
2023/02/09 17:43:47;;;;;;;170.80;55.27;;;;;;;1.77;64.11;102218.06;5109121;55;1140896;-69
2023/02/09 17:48:53;;;;;;;139.50;55.57;;;;;;;1.76;64.12;102217.64;5129322;55;1140935;-68
2023/02/09 17:54:00;;;;;;;139.60;57.40;;;;;;;1.78;63.91;102222.84;5115614;55;1140760;-68
2023/02/09 17:59:12;;;;;;;32.63;15.17;;;;;;;1.77;63.64;102236.33;4985996;56;1141065;-68
2023/02/09 18:04:21;;;;;;;64.37;24.20;;;;;;;1.74;64.47;102225.48;5008391;57;1138910;-68
2023/02/09 18:09:27;;;;;;;69.35;34.25;;;;;;;1.71;64.06;102222.92;5139780;56;1138831;-68
2023/02/09 18:14:34;;;;;;;89.72;40.52;;;;;;;1.69;64.52;102214.25;5120264;55;1138809;-66
2023/02/09 18:19:39;;;;;;;129.50;51.70;;;;;;;1.65;64.86;102215.64;5120289;55;1138840;-66
2023/02/09 18:24:46;;;;;;;64.07;26.73;;;;;;;1.64;65.26;102191.30;5087353;55;1140884;-69
2023/02/09 18:29:52;;;;;;;99.23;38.37;;;;;;;1.61;65.14;102195.25;4993497;56;1138703;-68
2023/02/09 18:34:58;;;;;;;86.83;33.63;;;;;;;1.61;65.10;102173.09;5065628;56;1138827;-67
2023/02/09 18:40:04;;;;;;;65.90;26.73;;;;;;;1.62;64.32;102161.77;5032653;56;1139052;-70
2023/02/09 18:45:15;;;;;;;61.57;26.70;;;;;;;1.59;64.59;102177.45;5052247;57;1139047;-68
2023/02/09 18:50:26;;;;;;;64.60;27.00;;;;;;;1.54;64.11;102158.39;5032456;57;1138967;-68
2023/02/09 18:55:34;;;;;;;52.77;20.10;;;;;;;1.50;64.01;102167.17;5029129;56;1138818;-68
2023/02/09 19:00:40;;;;;;;48.55;19.27;;;;;;;1.51;64.26;102170.20;5049845;56;1138778;-66
2023/02/09 19:05:46;;;;;;;44.03;20.70;;;;;;;1.53;64.25;102170.18;5052209;56;1139009;-68
2023/02/09 19:10:52;;;;;;;47.03;18.33;;;;;;;1.52;64.22;102161.94;5103541;56;1138852;-67
2023/02/09 19:15:58;;;;;;;37.17;17.30;;;;;;;1.52;64.22;102164.10;5115959;56;1138892;-67
2023/02/09 19:21:07;;;;;;;40.87;13.90;;;;;;;1.53;64.75;102179.30;5095832;56;1139007;-70
2023/02/09 19:26:13;;;;;;;36.33;16.97;;;;;;;1.51;64.35;102179.32;5135370;56;1138813;-68
2023/02/09 19:31:19;;;;;;;50.87;17.50;;;;;;;1.52;65.05;102181.05;5196534;56;1138916;-69
2023/02/09 19:36:26;;;;;;;54.27;18.07;;;;;;;1.51;64.65;102179.32;5202744;56;1138914;-68
2023/02/09 19:41:32;;;;;;;42.47;16.60;;;;;;;1.49;64.49;102160.23;5096550;55;1138662;-66
2023/02/09 19:46:40;;;;;;;70.97;26.27;;;;;;;1.49;64.19;102178.48;5096462;55;1138819;-69
2023/02/09 19:51:45;;;;;;;36.30;16.33;;;;;;;1.45;64.78;102172.87;5116859;55;1139031;-69
2023/02/09 19:56:51;;;;;;;45.43;17.05;;;;;;;1.40;65.04;102187.27;5084072;55;1138853;-66
2023/02/09 20:01:57;;;;;;;53.63;21.40;;;;;;;1.36;65.11;102176.48;5095862;56;1138834;-68
2023/02/09 20:07:03;;;;;;;43.90;17.16;;;;;;;1.30;65.53;102173.08;5105241;56;1138864;-69
2023/02/09 20:12:09;;;;;;;53.48;20.12;;;;;;;1.26;66.18;102180.06;5106612;56;1138833;-67
2023/02/09 20:17:16;;;;;;;34.07;14.77;;;;;;;1.24;66.56;102179.22;5097290;56;1138847;-69
2023/02/09 20:22:22;;;;;;;64.67;22.67;;;;;;;1.20;66.67;102169.73;5097286;56;1138934;-67
2023/02/09 20:27:28;;;;;;;63.27;25.13;;;;;;;1.16;66.83;102165.44;5116701;55;1138945;-69
2023/02/09 20:32:37;;;;;;;34.90;15.00;;;;;;;1.15;67.20;102170.66;5097298;56;1138753;-66
2023/02/09 20:37:43;;;;;;;42.47;17.67;;;;;;;1.09;67.36;102171.59;5128951;56;1138948;-68
2023/02/09 20:48:13;;;;;;;31.52;14.40;;;;;;;1.06;67.48;102153.41;5087539;56;1139188;-69
2023/02/09 20:53:18;;;;;;;28.43;13.50;;;;;;;1.03;67.46;102150.84;5108814;55;1139160;-70
2023/02/09 20:58:25;;;;;;;36.97;13.70;;;;;;;0.94;67.94;102141.38;5151176;55;1139244;-70
2023/02/09 21:03:31;;;;;;;36.77;16.07;;;;;;;0.94;67.94;102141.38;5131315;56;1139147;-68
2023/02/09 21:08:41;;;;;;;27.57;13.97;;;;;;;0.93;67.68;102136.18;5131299;56;1139154;-68
2023/02/09 21:13:47;;;;;;;29.03;13.40;;;;;;;0.89;67.89;102128.87;5118052;56;1138855;-70
2023/02/09 21:18:52;;;;;;;30.27;14.10;;;;;;;0.85;68.23;102125.88;5125084;56;1138908;-69
2023/02/09 21:23:59;;;;;;;31.47;14.23;;;;;;;0.81;68.54;102125.91;5122085;55;1138837;-70
2023/02/09 21:29:05;;;;;;;29.43;13.63;;;;;;;0.78;68.67;102128.55;5127995;54;1139008;-68
2023/02/09 21:34:14;;;;;;;27.17;12.37;;;;;;;0.67;68.60;102122.17;5151068;56;1138792;-69
2023/02/09 21:39:20;;;;;;;39.07;13.47;;;;;;;0.67;68.60;102122.17;5130894;56;1138975;-72
2023/02/09 21:44:25;;;;;;;31.35;12.50;;;;;;;0.61;68.95;102119.66;5130876;56;1138784;-70
2023/02/09 21:49:32;;;;;;;20.77;9.27;;;;;;;0.57;69.29;102116.66;5151083;56;1138904;-69
2023/02/09 21:54:38;;;;;;;33.40;15.57;;;;;;;0.53;69.39;102126.23;5131261;55;1136624;-69
2023/02/09 21:59:44;;;;;;;36.10;14.30;;;;;;;0.52;69.82;102127.54;5130908;55;1139051;-70
2023/02/09 22:04:51;;;;;;;29.73;15.40;;;;;;;0.46;69.93;102125.02;5151186;56;1138962;-69
2023/02/09 22:09:57;;;;;;;31.80;13.90;;;;;;;0.43;70.31;102118.10;5131090;56;1139018;-68
2023/02/09 22:15:03;;;;;;;28.30;12.67;;;;;;;0.41;70.60;102117.69;5130849;56;1139069;-71
2023/02/09 22:20:10;;;;;;;26.42;11.93;;;;;;;0.35;70.91;102124.67;5130956;56;1139097;-70
2023/02/09 22:25:16;;;;;;;34.73;14.73;;;;;;;0.32;71.40;102131.20;5150847;56;1138824;-70
2023/02/09 22:30:22;;;;;;;27.63;12.70;;;;;;;0.27;71.71;102147.31;5130785;56;1138903;-68
2023/02/09 22:35:28;;;;;;;69.83;25.63;;;;;;;0.20;72.03;102142.16;5131114;56;1138802;-71
2023/02/09 22:40:34;;;;;;;34.27;13.98;;;;;;;0.17;72.37;102149.55;5150965;56;1139017;-68
2023/02/09 22:45:40;;;;;;;32.93;13.07;;;;;;;0.13;72.81;102150.48;5130855;56;1138830;-71
2023/02/09 22:50:45;;;;;;;243.53;53.73;;;;;;;0.11;72.68;102144.42;5131046;56;1138785;-68
2023/02/09 22:55:51;;;;;;;51.17;17.53;;;;;;;0.08;73.12;102148.34;5131093;56;1141017;-68
2023/02/09 23:00:57;;;;;;;50.38;17.45;;;;;;;0.03;73.30;102142.73;5131069;56;1138941;-68
2023/02/09 23:06:05;;;;;;;35.13;13.17;;;;;;;-0.01;73.63;102153.20;5130874;56;1141591;-71
2023/02/09 23:11:15;;;;;;;49.42;16.07;;;;;;;-0.05;74.01;102153.22;5130537;56;1141241;-70
2023/02/09 23:16:25;;;;;;;163.10;39.97;;;;;;;-0.10;74.47;102144.58;5150565;56;1141188;-71
2023/02/09 23:21:36;;;;;;;75.50;21.87;;;;;;;-0.14;74.71;102148.07;5130668;56;1143413;-69
2023/02/09 23:26:41;;;;;;;36.30;12.87;;;;;;;-0.17;74.84;102147.69;5130492;56;1141310;-67